sensor_id;sensor_type;location;lat;lon;timestamp;temperature;humidity
69776;DHT22;57049;51.450;-2.516;2024-03-23T00:56:12;5.49;89.55
69776;DHT22;57049;51.450;-2.516;2024-03-23T00:58:37;5.46;89.86
69776;DHT22;57049;51.450;-2.516;2024-03-23T01:01:03;5.43;89.91
69776;DHT22;57049;51.450;-2.516;2024-03-23T01:03:31;5.35;90.20
69776;DHT22;57049;51.450;-2.516;2024-03-23T01:06:00;5.35;90.33
69776;DHT22;57049;51.450;-2.516;2024-03-23T01:08:25;5.31;90.71
69776;DHT22;57049;51.450;-2.516;2024-03-23T01:11:01;5.38;90.75
69776;DHT22;57049;51.450;-2.516;2024-03-23T01:13:28;5.32;91.00
69776;DHT22;57049;51.450;-2.516;2024-03-23T01:15:54;5.31;91.10
69776;DHT22;57049;51.450;-2.516;2024-03-23T01:18:21;5.32;91.23
69776;DHT22;57049;51.450;-2.516;2024-03-23T01:20:47;5.32;91.36
69776;DHT22;57049;51.450;-2.516;2024-03-23T01:23:12;5.39;91.17
69776;DHT22;57049;51.450;-2.516;2024-03-23T01:25:38;5.39;91.34
69776;DHT22;57049;51.450;-2.516;2024-03-23T01:28:04;5.35;91.41
69776;DHT22;57049;51.450;-2.516;2024-03-23T01:30:31;5.34;91.44
69776;DHT22;57049;51.450;-2.516;2024-03-23T01:32:57;5.28;91.52
69776;DHT22;57049;51.450;-2.516;2024-03-23T01:35:22;5.26;91.62
69776;DHT22;57049;51.450;-2.516;2024-03-23T01:37:48;5.31;91.08
69776;DHT22;57049;51.450;-2.516;2024-03-23T01:40:13;5.31;90.60
69776;DHT22;57049;51.450;-2.516;2024-03-23T01:42:39;5.35;90.40
69776;DHT22;57049;51.450;-2.516;2024-03-23T01:45:07;5.35;90.28
69776;DHT22;57049;51.450;-2.516;2024-03-23T01:47:33;5.29;90.37
69776;DHT22;57049;51.450;-2.516;2024-03-23T01:49:59;5.29;90.34
69776;DHT22;57049;51.450;-2.516;2024-03-23T01:52:25;5.31;90.36
69776;DHT22;57049;51.450;-2.516;2024-03-23T01:54:50;5.26;90.54
69776;DHT22;57049;51.450;-2.516;2024-03-23T01:57:17;5.26;90.46
69776;DHT22;57049;51.450;-2.516;2024-03-23T01:59:42;5.21;90.87
69776;DHT22;57049;51.450;-2.516;2024-03-23T02:02:08;5.15;90.89
69776;DHT22;57049;51.450;-2.516;2024-03-23T02:04:33;5.12;90.93
69776;DHT22;57049;51.450;-2.516;2024-03-23T02:06:58;5.14;91.00
69776;DHT22;57049;51.450;-2.516;2024-03-23T02:09:24;5.11;91.23
69776;DHT22;57049;51.450;-2.516;2024-03-23T02:11:50;5.09;91.20
69776;DHT22;57049;51.450;-2.516;2024-03-23T02:14:15;5.09;91.24
69776;DHT22;57049;51.450;-2.516;2024-03-23T02:16:41;5.11;91.28
69776;DHT22;57049;51.450;-2.516;2024-03-23T02:19:06;5.12;91.22
69776;DHT22;57049;51.450;-2.516;2024-03-23T02:21:32;5.14;91.12
69776;DHT22;57049;51.450;-2.516;2024-03-23T02:23:59;5.16;91.00
69776;DHT22;57049;51.450;-2.516;2024-03-23T02:26:24;5.14;90.81
69776;DHT22;57049;51.450;-2.516;2024-03-23T02:28:50;5.14;90.85
69776;DHT22;57049;51.450;-2.516;2024-03-23T02:31:15;5.18;90.73
69776;DHT22;57049;51.450;-2.516;2024-03-23T02:33:41;5.12;90.69
69776;DHT22;57049;51.450;-2.516;2024-03-23T02:36:06;5.16;90.35
69776;DHT22;57049;51.450;-2.516;2024-03-23T02:38:32;5.12;90.23
69776;DHT22;57049;51.450;-2.516;2024-03-23T02:41:06;5.15;90.03
69776;DHT22;57049;51.450;-2.516;2024-03-23T02:43:32;5.16;89.84
69776;DHT22;57049;51.450;-2.516;2024-03-23T02:45:57;5.14;89.84
69776;DHT22;57049;51.450;-2.516;2024-03-23T02:48:23;5.11;90.04
69776;DHT22;57049;51.450;-2.516;2024-03-23T02:50:49;5.07;90.13
69776;DHT22;57049;51.450;-2.516;2024-03-23T02:53:14;5.12;90.05
69776;DHT22;57049;51.450;-2.516;2024-03-23T02:55:40;5.18;89.53
69776;DHT22;57049;51.450;-2.516;2024-03-23T02:58:05;5.14;89.53
69776;DHT22;57049;51.450;-2.516;2024-03-23T03:00:31;5.15;89.65
69776;DHT22;57049;51.450;-2.516;2024-03-23T03:02:56;5.16;89.57
69776;DHT22;57049;51.450;-2.516;2024-03-23T03:05:21;5.12;89.69
69776;DHT22;57049;51.450;-2.516;2024-03-23T03:07:47;5.12;89.71
69776;DHT22;57049;51.450;-2.516;2024-03-23T03:10:12;5.12;89.45
69776;DHT22;57049;51.450;-2.516;2024-03-23T03:12:38;5.05;89.84
69776;DHT22;57049;51.450;-2.516;2024-03-23T03:15:04;5.04;90.04
69776;DHT22;57049;51.450;-2.516;2024-03-23T03:17:30;5.05;90.03
69776;DHT22;57049;51.450;-2.516;2024-03-23T03:19:55;5.05;89.99
69776;DHT22;57049;51.450;-2.516;2024-03-23T03:22:22;5.04;90.12
69776;DHT22;57049;51.450;-2.516;2024-03-23T03:24:47;5.07;90.20
69776;DHT22;57049;51.450;-2.516;2024-03-23T03:27:13;5.07;90.16
69776;DHT22;57049;51.450;-2.516;2024-03-23T03:29:38;5.08;90.20
69776;DHT22;57049;51.450;-2.516;2024-03-23T03:32:04;5.09;90.10
69776;DHT22;57049;51.450;-2.516;2024-03-23T03:34:29;5.04;90.16
69776;DHT22;57049;51.450;-2.516;2024-03-23T03:36:56;5.01;90.26
69776;DHT22;57049;51.450;-2.516;2024-03-23T03:39:21;5.04;90.13
69776;DHT22;57049;51.450;-2.516;2024-03-23T03:41:48;4.95;90.35
69776;DHT22;57049;51.450;-2.516;2024-03-23T03:44:13;4.92;90.40
69776;DHT22;57049;51.450;-2.516;2024-03-23T03:46:39;4.88;90.56
69776;DHT22;57049;51.450;-2.516;2024-03-23T03:49:04;4.92;90.36
69776;DHT22;57049;51.450;-2.516;2024-03-23T03:51:30;4.92;90.58
69776;DHT22;57049;51.450;-2.516;2024-03-23T03:53:56;4.83;90.80
69776;DHT22;57049;51.450;-2.516;2024-03-23T03:56:21;4.85;90.73
69776;DHT22;57049;51.450;-2.516;2024-03-23T03:58:48;4.91;90.88
69776;DHT22;57049;51.450;-2.516;2024-03-23T04:01:13;4.98;90.96
69776;DHT22;57049;51.450;-2.516;2024-03-23T04:03:38;4.96;91.00
69776;DHT22;57049;51.450;-2.516;2024-03-23T04:06:09;4.96;90.83
69776;DHT22;57049;51.450;-2.516;2024-03-23T04:08:34;4.92;90.71
69776;DHT22;57049;51.450;-2.516;2024-03-23T04:11:00;4.89;90.82
69776;DHT22;57049;51.450;-2.516;2024-03-23T04:13:25;4.84;90.79
69776;DHT22;57049;51.450;-2.516;2024-03-23T04:15:56;4.89;90.53
69776;DHT22;57049;51.450;-2.516;2024-03-23T04:18:22;4.89;90.36
69776;DHT22;57049;51.450;-2.516;2024-03-23T04:20:49;4.88;90.43
69776;DHT22;57049;51.450;-2.516;2024-03-23T04:23:14;4.84;90.32
69776;DHT22;57049;51.450;-2.516;2024-03-23T04:25:40;4.80;90.37
69776;DHT22;57049;51.450;-2.516;2024-03-23T04:28:05;4.80;90.42
69776;DHT22;57049;51.450;-2.516;2024-03-23T04:30:31;4.81;90.45
69776;DHT22;57049;51.450;-2.516;2024-03-23T04:32:57;4.88;90.40
69776;DHT22;57049;51.450;-2.516;2024-03-23T04:35:24;4.87;90.43
69776;DHT22;57049;51.450;-2.516;2024-03-23T04:37:50;4.88;90.45
69776;DHT22;57049;51.450;-2.516;2024-03-23T04:40:17;4.89;90.38
69776;DHT22;57049;51.450;-2.516;2024-03-23T04:42:43;4.89;90.56
69776;DHT22;57049;51.450;-2.516;2024-03-23T04:45:09;4.84;90.54
69776;DHT22;57049;51.450;-2.516;2024-03-23T04:47:36;4.87;90.38
69776;DHT22;57049;51.450;-2.516;2024-03-23T04:50:02;4.89;90.25
69776;DHT22;57049;51.450;-2.516;2024-03-23T04:52:28;4.84;90.29
69776;DHT22;57049;51.450;-2.516;2024-03-23T04:54:54;4.81;90.26
69776;DHT22;57049;51.450;-2.516;2024-03-23T04:57:19;4.83;90.17
69776;DHT22;57049;51.450;-2.516;2024-03-23T04:59:45;4.87;90.06
69776;DHT22;57049;51.450;-2.516;2024-03-23T05:02:10;4.88;89.87
69776;DHT22;57049;51.450;-2.516;2024-03-23T05:04:36;4.83;89.99
69776;DHT22;57049;51.450;-2.516;2024-03-23T05:07:02;4.83;89.84
69776;DHT22;57049;51.450;-2.516;2024-03-23T05:09:28;4.81;89.90
69776;DHT22;57049;51.450;-2.516;2024-03-23T05:11:55;4.83;89.67
69776;DHT22;57049;51.450;-2.516;2024-03-23T05:14:21;4.85;89.55
69776;DHT22;57049;51.450;-2.516;2024-03-23T05:16:47;4.85;89.58
69776;DHT22;57049;51.450;-2.516;2024-03-23T05:19:12;4.91;89.27
69776;DHT22;57049;51.450;-2.516;2024-03-23T05:21:37;4.98;89.09
69776;DHT22;57049;51.450;-2.516;2024-03-23T05:24:03;4.94;89.22
69776;DHT22;57049;51.450;-2.516;2024-03-23T05:26:28;4.89;89.29
69776;DHT22;57049;51.450;-2.516;2024-03-23T05:28:54;4.89;89.48
69776;DHT22;57049;51.450;-2.516;2024-03-23T05:31:24;4.81;89.71
69776;DHT22;57049;51.450;-2.516;2024-03-23T05:33:50;4.85;89.63
69776;DHT22;57049;51.450;-2.516;2024-03-23T05:36:17;4.96;89.02
69776;DHT22;57049;51.450;-2.516;2024-03-23T05:38:42;4.96;89.00
69776;DHT22;57049;51.450;-2.516;2024-03-23T05:41:08;5.01;88.84
69776;DHT22;57049;51.450;-2.516;2024-03-23T05:43:33;4.95;89.06
69776;DHT22;57049;51.450;-2.516;2024-03-23T05:46:00;4.99;88.91
69776;DHT22;57049;51.450;-2.516;2024-03-23T05:48:26;4.98;88.84
69776;DHT22;57049;51.450;-2.516;2024-03-23T05:50:52;4.96;88.66
69776;DHT22;57049;51.450;-2.516;2024-03-23T05:53:19;4.98;88.69
69776;DHT22;57049;51.450;-2.516;2024-03-23T05:55:48;4.98;88.60
69776;DHT22;57049;51.450;-2.516;2024-03-23T05:58:15;4.99;88.58
69776;DHT22;57049;51.450;-2.516;2024-03-23T06:00:40;4.96;88.72
69776;DHT22;57049;51.450;-2.516;2024-03-23T06:03:07;5.14;88.11
69776;DHT22;57049;51.450;-2.516;2024-03-23T06:05:33;5.14;88.01
69776;DHT22;57049;51.450;-2.516;2024-03-23T06:07:58;5.19;87.99
69776;DHT22;57049;51.450;-2.516;2024-03-23T06:10:23;5.22;87.94
69776;DHT22;57049;51.450;-2.516;2024-03-23T06:12:49;5.19;88.18
69776;DHT22;57049;51.450;-2.516;2024-03-23T06:15:20;5.19;88.49
69776;DHT22;57049;51.450;-2.516;2024-03-23T06:17:46;5.28;88.54
69776;DHT22;57049;51.450;-2.516;2024-03-23T06:20:12;5.31;88.53
69776;DHT22;57049;51.450;-2.516;2024-03-23T06:22:38;5.38;88.40
69776;DHT22;57049;51.450;-2.516;2024-03-23T06:25:03;5.35;88.45
69776;DHT22;57049;51.450;-2.516;2024-03-23T06:27:29;5.39;88.00
69776;DHT22;57049;51.450;-2.516;2024-03-23T06:29:54;5.46;87.77
69776;DHT22;57049;51.450;-2.516;2024-03-23T06:32:20;5.47;87.71
69776;DHT22;57049;51.450;-2.516;2024-03-23T06:34:46;5.52;87.40
69776;DHT22;57049;51.450;-2.516;2024-03-23T06:37:11;5.55;87.58
69776;DHT22;57049;51.450;-2.516;2024-03-23T06:39:37;5.55;87.60
69776;DHT22;57049;51.450;-2.516;2024-03-23T06:42:03;5.59;87.70
69776;DHT22;57049;51.450;-2.516;2024-03-23T06:44:29;5.60;87.74
69776;DHT22;57049;51.450;-2.516;2024-03-23T06:46:55;5.62;87.90
69776;DHT22;57049;51.450;-2.516;2024-03-23T06:49:21;5.65;88.15
69776;DHT22;57049;51.450;-2.516;2024-03-23T06:51:46;5.66;87.82
69776;DHT22;57049;51.450;-2.516;2024-03-23T06:54:12;5.74;87.49
69776;DHT22;57049;51.450;-2.516;2024-03-23T06:56:37;5.76;87.44
69776;DHT22;57049;51.450;-2.516;2024-03-23T06:59:03;5.77;87.30
69776;DHT22;57049;51.450;-2.516;2024-03-23T07:01:28;5.89;86.66
69776;DHT22;57049;51.450;-2.516;2024-03-23T07:03:54;5.96;86.33
69776;DHT22;57049;51.450;-2.516;2024-03-23T07:06:20;6.00;86.20
69776;DHT22;57049;51.450;-2.516;2024-03-23T07:08:45;6.04;85.92
69776;DHT22;57049;51.450;-2.516;2024-03-23T07:11:11;6.20;85.88
69776;DHT22;57049;51.450;-2.516;2024-03-23T07:13:36;6.34;85.01
69776;DHT22;57049;51.450;-2.516;2024-03-23T07:16:01;6.42;84.95
69776;DHT22;57049;51.450;-2.516;2024-03-23T07:18:27;6.44;85.10
69776;DHT22;57049;51.450;-2.516;2024-03-23T07:20:54;6.48;85.17
69776;DHT22;57049;51.450;-2.516;2024-03-23T07:23:19;6.53;85.13
69776;DHT22;57049;51.450;-2.516;2024-03-23T07:25:45;6.49;84.97
69776;DHT22;57049;51.450;-2.516;2024-03-23T07:28:10;6.58;85.11
69776;DHT22;57049;51.450;-2.516;2024-03-23T07:30:35;6.69;85.47
69776;DHT22;57049;51.450;-2.516;2024-03-23T07:33:01;6.78;85.28
69776;DHT22;57049;51.450;-2.516;2024-03-23T07:35:26;6.73;85.00
69776;DHT22;57049;51.450;-2.516;2024-03-23T07:37:52;6.78;84.84
69776;DHT22;57049;51.450;-2.516;2024-03-23T07:40:17;6.76;84.39
69776;DHT22;57049;51.450;-2.516;2024-03-23T07:42:43;6.82;84.79
69776;DHT22;57049;51.450;-2.516;2024-03-23T07:45:08;6.93;83.91
69776;DHT22;57049;51.450;-2.516;2024-03-23T07:47:34;7.04;83.81
69776;DHT22;57049;51.450;-2.516;2024-03-23T07:50:00;7.27;84.03
69776;DHT22;57049;51.450;-2.516;2024-03-23T07:52:28;7.38;83.76
69776;DHT22;57049;51.450;-2.516;2024-03-23T07:54:54;7.35;83.59
69776;DHT22;57049;51.450;-2.516;2024-03-23T07:57:19;7.26;83.76
69776;DHT22;57049;51.450;-2.516;2024-03-23T07:59:45;7.26;83.31
69776;DHT22;57049;51.450;-2.516;2024-03-23T08:02:10;7.13;82.78
69776;DHT22;57049;51.450;-2.516;2024-03-23T08:04:36;7.04;82.00
69776;DHT22;57049;51.450;-2.516;2024-03-23T08:07:02;7.17;82.45
69776;DHT22;57049;51.450;-2.516;2024-03-23T08:09:27;7.27;82.60
69776;DHT22;57049;51.450;-2.516;2024-03-23T08:11:53;7.33;81.81
69776;DHT22;57049;51.450;-2.516;2024-03-23T08:14:18;7.37;81.24
69776;DHT22;57049;51.450;-2.516;2024-03-23T08:16:44;7.50;81.60
69776;DHT22;57049;51.450;-2.516;2024-03-23T08:19:14;7.41;80.49
69776;DHT22;57049;51.450;-2.516;2024-03-23T08:21:39;7.41;80.54
69776;DHT22;57049;51.450;-2.516;2024-03-23T08:24:05;7.41;79.97
69776;DHT22;57049;51.450;-2.516;2024-03-23T08:26:30;7.47;79.57
69776;DHT22;57049;51.450;-2.516;2024-03-23T08:28:56;7.60;79.99
69776;DHT22;57049;51.450;-2.516;2024-03-23T08:31:22;7.57;79.44
69776;DHT22;57049;51.450;-2.516;2024-03-23T08:33:48;7.60;79.18
69776;DHT22;57049;51.450;-2.516;2024-03-23T08:36:13;7.70;78.50
69776;DHT22;57049;51.450;-2.516;2024-03-23T08:38:40;7.73;78.57
69776;DHT22;57049;51.450;-2.516;2024-03-23T08:41:07;7.77;78.56
69776;DHT22;57049;51.450;-2.516;2024-03-23T08:43:37;7.77;78.68
69776;DHT22;57049;51.450;-2.516;2024-03-23T08:46:13;7.77;78.56
69776;DHT22;57049;51.450;-2.516;2024-03-23T08:48:40;7.85;79.53
69776;DHT22;57049;51.450;-2.516;2024-03-23T08:51:08;7.99;79.86
69776;DHT22;57049;51.450;-2.516;2024-03-23T08:53:34;8.21;80.22
69776;DHT22;57049;51.450;-2.516;2024-03-23T08:56:00;8.22;79.44
69776;DHT22;57049;51.450;-2.516;2024-03-23T08:58:27;8.28;78.74
69776;DHT22;57049;51.450;-2.516;2024-03-23T09:00:53;8.39;77.98
69776;DHT22;57049;51.450;-2.516;2024-03-23T09:03:22;8.46;77.52
69776;DHT22;57049;51.450;-2.516;2024-03-23T09:05:47;8.66;77.43
69776;DHT22;57049;51.450;-2.516;2024-03-23T09:08:12;8.54;76.54
69776;DHT22;57049;51.450;-2.516;2024-03-23T09:10:39;8.74;77.43
69776;DHT22;57049;51.450;-2.516;2024-03-23T09:13:04;8.60;76.00
69776;DHT22;57049;51.450;-2.516;2024-03-23T09:15:30;8.37;75.53
69776;DHT22;57049;51.450;-2.516;2024-03-23T09:17:56;8.39;75.17
69776;DHT22;57049;51.450;-2.516;2024-03-23T09:20:21;8.56;75.60
69776;DHT22;57049;51.450;-2.516;2024-03-23T09:22:48;8.74;76.17
69776;DHT22;57049;51.450;-2.516;2024-03-23T09:25:14;8.73;76.04
69776;DHT22;57049;51.450;-2.516;2024-03-23T09:27:39;8.71;75.66
69776;DHT22;57049;51.450;-2.516;2024-03-23T09:30:05;8.88;75.97
69776;DHT22;57049;51.450;-2.516;2024-03-23T09:32:31;8.84;75.18
69776;DHT22;57049;51.450;-2.516;2024-03-23T09:34:56;8.80;75.31
69776;DHT22;57049;51.450;-2.516;2024-03-23T09:37:22;8.78;75.58
69776;DHT22;57049;51.450;-2.516;2024-03-23T09:39:47;8.92;75.88
69776;DHT22;57049;51.450;-2.516;2024-03-23T09:42:13;9.07;76.52
69776;DHT22;57049;51.450;-2.516;2024-03-23T09:44:39;9.04;75.22
69776;DHT22;57049;51.450;-2.516;2024-03-23T09:47:05;9.18;74.82
69776;DHT22;57049;51.450;-2.516;2024-03-23T09:49:31;9.05;73.98
69776;DHT22;57049;51.450;-2.516;2024-03-23T09:51:57;9.18;73.69
69776;DHT22;57049;51.450;-2.516;2024-03-23T09:54:23;9.04;74.55
69776;DHT22;57049;51.450;-2.516;2024-03-23T09:56:48;9.24;74.53
69776;DHT22;57049;51.450;-2.516;2024-03-23T09:59:14;9.12;73.39
69776;DHT22;57049;51.450;-2.516;2024-03-23T10:01:39;9.36;73.92
69776;DHT22;57049;51.450;-2.516;2024-03-23T10:04:05;9.15;73.55
69776;DHT22;57049;51.450;-2.516;2024-03-23T10:06:30;9.08;73.21
69776;DHT22;57049;51.450;-2.516;2024-03-23T10:08:56;8.92;73.46
69776;DHT22;57049;51.450;-2.516;2024-03-23T10:11:21;9.01;73.51
69776;DHT22;57049;51.450;-2.516;2024-03-23T10:13:47;9.31;73.56
69776;DHT22;57049;51.450;-2.516;2024-03-23T10:16:21;9.78;73.60
69776;DHT22;57049;51.450;-2.516;2024-03-23T10:18:47;10.30;73.95
69776;DHT22;57049;51.450;-2.516;2024-03-23T10:21:14;10.18;73.91
69776;DHT22;57049;51.450;-2.516;2024-03-23T10:23:44;10.18;74.58
69776;DHT22;57049;51.450;-2.516;2024-03-23T10:26:18;10.03;73.82
69776;DHT22;57049;51.450;-2.516;2024-03-23T10:28:56;10.38;73.91
69776;DHT22;57049;51.450;-2.516;2024-03-23T10:31:33;10.24;73.00
69776;DHT22;57049;51.450;-2.516;2024-03-23T10:33:58;10.14;72.00
69776;DHT22;57049;51.450;-2.516;2024-03-23T10:36:26;9.99;72.09
69776;DHT22;57049;51.450;-2.516;2024-03-23T10:38:53;10.17;73.44
69776;DHT22;57049;51.450;-2.516;2024-03-23T10:41:19;10.09;72.39
69776;DHT22;57049;51.450;-2.516;2024-03-23T10:43:46;9.70;72.43
69776;DHT22;57049;51.450;-2.516;2024-03-23T10:46:12;9.11;73.67
69776;DHT22;57049;51.450;-2.516;2024-03-23T10:48:37;9.05;74.20
69776;DHT22;57049;51.450;-2.516;2024-03-23T10:51:04;9.14;75.75
69776;DHT22;57049;51.450;-2.516;2024-03-23T10:53:33;9.08;76.68
69776;DHT22;57049;51.450;-2.516;2024-03-23T10:55:59;9.18;77.31
69776;DHT22;57049;51.450;-2.516;2024-03-23T10:58:31;9.14;77.62
69776;DHT22;57049;51.450;-2.516;2024-03-23T11:00:57;8.77;78.76
69776;DHT22;57049;51.450;-2.516;2024-03-23T11:05:59;7.50;85.27
69776;DHT22;57049;51.450;-2.516;2024-03-23T11:08:39;7.02;86.78
69776;DHT22;57049;51.450;-2.516;2024-03-23T11:11:18;6.61;87.79
69776;DHT22;57049;51.450;-2.516;2024-03-23T11:13:53;6.65;89.66
69776;DHT22;57049;51.450;-2.516;2024-03-23T11:16:26;6.71;90.84
69776;DHT22;57049;51.450;-2.516;2024-03-23T11:19:34;6.89;90.89
69776;DHT22;57049;51.450;-2.516;2024-03-23T11:22:00;7.12;91.30
69776;DHT22;57049;51.450;-2.516;2024-03-23T11:24:25;7.19;91.30
69776;DHT22;57049;51.450;-2.516;2024-03-23T11:26:51;7.19;91.69
69776;DHT22;57049;51.450;-2.516;2024-03-23T11:29:17;7.41;91.67
69776;DHT22;57049;51.450;-2.516;2024-03-23T11:31:51;7.57;91.74
69776;DHT22;57049;51.450;-2.516;2024-03-23T11:34:17;7.70;91.00
69776;DHT22;57049;51.450;-2.516;2024-03-23T11:36:43;7.89;89.99
69776;DHT22;57049;51.450;-2.516;2024-03-23T11:39:16;8.19;89.22
69776;DHT22;57049;51.450;-2.516;2024-03-23T11:41:49;8.63;87.62
69776;DHT22;57049;51.450;-2.516;2024-03-23T11:44:19;8.96;85.46
69776;DHT22;57049;51.450;-2.516;2024-03-23T11:46:45;9.21;86.01
69776;DHT22;57049;51.450;-2.516;2024-03-23T11:49:24;9.04;82.83
69776;DHT22;57049;51.450;-2.516;2024-03-23T11:51:52;9.03;82.11
69776;DHT22;57049;51.450;-2.516;2024-03-23T11:54:25;8.98;81.36
69776;DHT22;57049;51.450;-2.516;2024-03-23T11:56:58;8.85;81.17
69776;DHT22;57049;51.450;-2.516;2024-03-23T11:59:36;9.15;80.54
69776;DHT22;57049;51.450;-2.516;2024-03-23T12:02:10;9.24;79.44
69776;DHT22;57049;51.450;-2.516;2024-03-23T12:04:40;9.11;78.32
69776;DHT22;57049;51.450;-2.516;2024-03-23T12:07:19;8.98;78.21
69776;DHT22;57049;51.450;-2.516;2024-03-23T12:09:46;8.85;77.07
69776;DHT22;57049;51.450;-2.516;2024-03-23T12:12:16;8.78;77.31
69776;DHT22;57049;51.450;-2.516;2024-03-23T12:14:43;8.80;76.33
69776;DHT22;57049;51.450;-2.516;2024-03-23T12:19:35;8.98;77.20
69776;DHT22;57049;51.450;-2.516;2024-03-23T12:22:03;8.94;76.18
69776;DHT22;57049;51.450;-2.516;2024-03-23T12:24:29;8.97;76.08
69776;DHT22;57049;51.450;-2.516;2024-03-23T12:26:54;9.14;76.40
69776;DHT22;57049;51.450;-2.516;2024-03-23T12:29:20;9.14;76.05
69776;DHT22;57049;51.450;-2.516;2024-03-23T12:31:45;8.74;74.87
69776;DHT22;57049;51.450;-2.516;2024-03-23T12:34:11;8.64;75.08
69776;DHT22;57049;51.450;-2.516;2024-03-23T12:36:36;8.80;76.22
69776;DHT22;57049;51.450;-2.516;2024-03-23T12:39:02;8.80;75.79
69776;DHT22;57049;51.450;-2.516;2024-03-23T12:41:27;8.81;76.21
69776;DHT22;57049;51.450;-2.516;2024-03-23T12:43:52;8.76;76.73
69776;DHT22;57049;51.450;-2.516;2024-03-23T12:46:18;8.66;76.95
69776;DHT22;57049;51.450;-2.516;2024-03-23T12:48:46;8.33;78.47
69776;DHT22;57049;51.450;-2.516;2024-03-23T12:51:12;8.61;79.35
69776;DHT22;57049;51.450;-2.516;2024-03-23T12:53:37;8.90;79.70
69776;DHT22;57049;51.450;-2.516;2024-03-23T12:56:03;9.27;79.47
69776;DHT22;57049;51.450;-2.516;2024-03-23T12:58:29;9.38;78.95
69776;DHT22;57049;51.450;-2.516;2024-03-23T13:00:54;9.18;76.68
69776;DHT22;57049;51.450;-2.516;2024-03-23T13:03:19;9.08;76.09
69776;DHT22;57049;51.450;-2.516;2024-03-23T13:05:51;9.39;76.29
69776;DHT22;57049;51.450;-2.516;2024-03-23T13:08:17;9.55;75.95
69776;DHT22;57049;51.450;-2.516;2024-03-23T13:10:42;9.24;75.90
69776;DHT22;57049;51.450;-2.516;2024-03-23T13:13:08;9.28;75.05
69776;DHT22;57049;51.450;-2.516;2024-03-23T13:15:33;9.18;75.21
69776;DHT22;57049;51.450;-2.516;2024-03-23T13:17:59;9.18;76.34
69776;DHT22;57049;51.450;-2.516;2024-03-23T13:20:24;9.35;76.30
69776;DHT22;57049;51.450;-2.516;2024-03-23T13:22:50;9.46;77.20
69776;DHT22;57049;51.450;-2.516;2024-03-23T13:25:17;9.79;76.60
69776;DHT22;57049;51.450;-2.516;2024-03-23T13:27:44;10.03;75.48
69776;DHT22;57049;51.450;-2.516;2024-03-23T13:30:10;10.18;75.08
69776;DHT22;57049;51.450;-2.516;2024-03-23T13:32:35;10.40;73.61
69776;DHT22;57049;51.450;-2.516;2024-03-23T13:35:01;10.34;72.17
69776;DHT22;57049;51.450;-2.516;2024-03-23T13:37:26;10.25;70.15
69776;DHT22;57049;51.450;-2.516;2024-03-23T13:39:52;10.06;70.31
69776;DHT22;57049;51.450;-2.516;2024-03-23T13:42:17;10.06;69.99
69776;DHT22;57049;51.450;-2.516;2024-03-23T13:44:43;10.17;68.00
69776;DHT22;57049;51.450;-2.516;2024-03-23T13:47:08;10.17;68.88
69776;DHT22;57049;51.450;-2.516;2024-03-23T13:49:34;10.04;69.09
69776;DHT22;57049;51.450;-2.516;2024-03-23T13:52:01;10.04;67.88
69776;DHT22;57049;51.450;-2.516;2024-03-23T13:54:26;10.51;70.98
69776;DHT22;57049;51.450;-2.516;2024-03-23T13:56:53;10.81;68.04
69776;DHT22;57049;51.450;-2.516;2024-03-23T13:59:19;11.19;70.37
69776;DHT22;57049;51.450;-2.516;2024-03-23T14:01:46;11.59;71.05
69776;DHT22;57049;51.450;-2.516;2024-03-23T14:04:12;11.69;68.31
69776;DHT22;57049;51.450;-2.516;2024-03-23T14:06:38;11.22;64.45
69776;DHT22;57049;51.450;-2.516;2024-03-23T14:09:04;10.67;65.90
69776;DHT22;57049;51.450;-2.516;2024-03-23T14:11:30;10.33;69.56
69776;DHT22;57049;51.450;-2.516;2024-03-23T14:13:55;10.36;74.68
69776;DHT22;57049;51.450;-2.516;2024-03-23T14:16:20;10.57;75.24
69776;DHT22;57049;51.450;-2.516;2024-03-23T14:18:46;10.30;73.16
69776;DHT22;57049;51.450;-2.516;2024-03-23T14:21:12;10.51;73.65
69776;DHT22;57049;51.450;-2.516;2024-03-23T14:23:37;10.61;72.89
69776;DHT22;57049;51.450;-2.516;2024-03-23T14:26:03;10.76;71.54
69776;DHT22;57049;51.450;-2.516;2024-03-23T14:28:29;11.02;70.63
69776;DHT22;57049;51.450;-2.516;2024-03-23T14:30:55;11.23;70.40
69776;DHT22;57049;51.450;-2.516;2024-03-23T14:33:21;11.33;68.90
69776;DHT22;57049;51.450;-2.516;2024-03-23T14:35:53;11.30;68.55
69776;DHT22;57049;51.450;-2.516;2024-03-23T14:38:19;11.25;68.40
69776;DHT22;57049;51.450;-2.516;2024-03-23T14:40:45;11.03;67.39
69776;DHT22;57049;51.450;-2.516;2024-03-23T14:43:11;11.20;67.58
69776;DHT22;57049;51.450;-2.516;2024-03-23T14:45:36;11.53;67.92
69776;DHT22;57049;51.450;-2.516;2024-03-23T14:48:02;11.77;68.17
69776;DHT22;57049;51.450;-2.516;2024-03-23T14:50:28;12.05;67.64
69776;DHT22;57049;51.450;-2.516;2024-03-23T14:52:53;11.84;65.44
69776;DHT22;57049;51.450;-2.516;2024-03-23T14:55:18;11.11;61.52
69776;DHT22;57049;51.450;-2.516;2024-03-23T14:57:44;10.48;64.11
69776;DHT22;57049;51.450;-2.516;2024-03-23T15:00:10;10.38;63.92
69776;DHT22;57049;51.450;-2.516;2024-03-23T15:02:37;9.93;64.37
69776;DHT22;57049;51.450;-2.516;2024-03-23T15:05:03;9.93;64.61
69776;DHT22;57049;51.450;-2.516;2024-03-23T15:07:30;10.20;64.80
69776;DHT22;57049;51.450;-2.516;2024-03-23T15:09:56;10.10;63.98
69776;DHT22;57049;51.450;-2.516;2024-03-23T15:12:21;10.10;63.37
69776;DHT22;57049;51.450;-2.516;2024-03-23T15:14:47;10.06;64.07
69776;DHT22;57049;51.450;-2.516;2024-03-23T15:17:13;10.11;63.98
69776;DHT22;57049;51.450;-2.516;2024-03-23T15:19:38;10.21;64.18
69776;DHT22;57049;51.450;-2.516;2024-03-23T15:22:04;10.27;63.13
69776;DHT22;57049;51.450;-2.516;2024-03-23T15:24:30;10.20;62.58
69776;DHT22;57049;51.450;-2.516;2024-03-23T15:26:57;10.41;66.20
69776;DHT22;57049;51.450;-2.516;2024-03-23T15:29:22;10.41;66.12
69776;DHT22;57049;51.450;-2.516;2024-03-23T15:31:48;10.23;66.93
69776;DHT22;57049;51.450;-2.516;2024-03-23T15:34:18;10.24;67.36
69776;DHT22;57049;51.450;-2.516;2024-03-23T15:36:44;10.06;67.89
69776;DHT22;57049;51.450;-2.516;2024-03-23T15:39:10;9.72;68.30
69776;DHT22;57049;51.450;-2.516;2024-03-23T15:41:35;9.56;69.82
69776;DHT22;57049;51.450;-2.516;2024-03-23T15:44:01;9.38;68.13
69776;DHT22;57049;51.450;-2.516;2024-03-23T15:46:27;9.27;66.97
69776;DHT22;57049;51.450;-2.516;2024-03-23T15:48:52;9.22;66.51
69776;DHT22;57049;51.450;-2.516;2024-03-23T15:51:19;9.05;65.15
69776;DHT22;57049;51.450;-2.516;2024-03-23T15:53:45;9.22;65.35
69776;DHT22;57049;51.450;-2.516;2024-03-23T15:56:10;9.53;64.19
69776;DHT22;57049;51.450;-2.516;2024-03-23T15:58:36;9.73;63.93
69776;DHT22;57049;51.450;-2.516;2024-03-23T16:01:06;9.94;62.40
69776;DHT22;57049;51.450;-2.516;2024-03-23T16:03:34;10.10;60.32
69776;DHT22;57049;51.450;-2.516;2024-03-23T16:06:01;10.01;59.49
69776;DHT22;57049;51.450;-2.516;2024-03-23T16:08:28;9.85;59.39
69776;DHT22;57049;51.450;-2.516;2024-03-23T16:10:54;9.87;59.86
69776;DHT22;57049;51.450;-2.516;2024-03-23T16:13:20;9.89;60.14
69776;DHT22;57049;51.450;-2.516;2024-03-23T16:15:54;9.86;58.02
69776;DHT22;57049;51.450;-2.516;2024-03-23T16:18:20;9.73;58.68
69776;DHT22;57049;51.450;-2.516;2024-03-23T16:21:05;9.65;58.00
69776;DHT22;57049;51.450;-2.516;2024-03-23T16:23:34;9.55;58.92